Time;durP1;ratioP1;P1;durP2;ratioP2;P2;SDS_P1;SDS_P2;PMS_P1;PMS_P2;Temp;Humidity;BMP_temperature;BMP_pressure;BME280_temperature;BME280_humidity;BME280_pressure;Samples;Min_cycle;Max_cycle;Signal;HPM_P1;HPM_P2
2022/09/27 00:01:39;;;;;;;1.80;1.00;;;;;;;10.87;82.82;96664.38;5090762;28;20024;-85
2022/09/27 00:04:04;;;;;;;0.85;0.80;;;;;;;10.89;83.11;96679.00;5090812;28;20376;-85
2022/09/27 00:06:31;;;;;;;1.75;1.15;;;;;;;10.95;83.03;96674.31;5101756;28;20729;-85
2022/09/27 00:08:57;;;;;;;1.15;0.80;;;;;;;10.79;82.51;96643.78;5099633;28;20475;-85
2022/09/27 00:11:29;;;;;;;1.25;1.15;;;;;;;11.00;82.60;96663.53;5107171;28;20103;-85
2022/09/27 00:13:56;;;;;;;1.05;0.70;;;;;;;10.74;83.07;96650.00;5105496;28;20027;-85
2022/09/27 00:16:23;;;;;;;0.80;0.80;;;;;;;10.83;82.92;96677.56;5108283;28;20023;-85
2022/09/27 00:18:49;;;;;;;1.02;0.98;;;;;;;10.90;83.36;96677.91;5110334;28;20035;-85
2022/09/27 00:21:15;;;;;;;1.00;0.95;;;;;;;10.72;84.23;96670.88;5110537;28;20024;-85
2022/09/27 00:23:41;;;;;;;1.38;0.88;;;;;;;10.40;83.12;96605.16;5108613;28;20077;-85
2022/09/27 00:26:08;;;;;;;0.52;0.52;;;;;;;10.51;84.03;96627.84;5109359;28;20106;-84
2022/09/27 00:28:33;;;;;;;0.98;0.80;;;;;;;10.54;84.15;96645.94;5090987;28;20032;-85
2022/09/27 00:30:59;;;;;;;1.88;0.90;;;;;;;10.57;83.99;96634.66;5071065;28;20035;-85
2022/09/27 00:33:25;;;;;;;1.35;0.82;;;;;;;10.52;83.84;96613.44;5108017;28;20023;-85
2022/09/27 00:35:51;;;;;;;1.15;1.05;;;;;;;10.88;83.11;96653.38;5092830;28;20053;-85
2022/09/27 00:38:17;;;;;;;0.70;0.65;;;;;;;10.70;83.91;96637.56;5088882;28;20112;-85
2022/09/27 00:40:42;;;;;;;0.65;0.65;;;;;;;10.81;83.70;96649.59;5108401;28;20027;-85
2022/09/27 00:43:14;;;;;;;0.80;0.70;;;;;;;10.67;83.60;96651.50;5092008;28;20038;-84
2022/09/27 00:45:39;;;;;;;1.08;0.88;;;;;;;10.78;83.62;96639.50;5109496;27;20176;-85
2022/09/27 00:48:05;;;;;;;1.05;0.80;;;;;;;10.69;83.59;96625.31;5105460;27;20111;-85
2022/09/27 00:50:45;;;;;;;0.63;0.63;;;;;;;10.85;83.35;96642.56;5108692;28;20027;-84
2022/09/27 00:53:17;;;;;;;0.82;0.60;;;;;;;10.85;83.59;96642.56;5091177;28;20403;-85
2022/09/27 00:55:51;;;;;;;0.93;0.60;;;;;;;10.69;83.69;96623.44;5109783;28;20414;-85
2022/09/27 00:58:19;;;;;;;0.80;0.80;;;;;;;10.73;83.82;96624.41;5106357;28;20102;-84
2022/09/27 01:00:49;;;;;;;2.35;0.70;;;;;;;10.68;84.69;96637.09;5111977;28;20024;-84
2022/09/27 01:03:25;;;;;;;0.68;0.68;;;;;;;10.32;85.11;96587.22;5105008;28;20088;-84
2022/09/27 01:05:51;;;;;;;0.93;0.80;;;;;;;10.71;84.34;96633.81;5108120;27;20072;-85
2022/09/27 01:08:16;;;;;;;0.82;0.82;;;;;;;10.65;84.29;96637.69;5104640;28;20135;-84
2022/09/27 01:11:03;;;;;;;0.82;0.82;;;;;;;10.57;84.50;96613.31;5075850;28;20118;-84
2022/09/27 01:14:02;;;;;;;0.93;0.93;;;;;;;10.44;85.20;96622.13;5105927;28;20031;-84
2022/09/27 01:16:46;;;;;;;0.95;0.93;;;;;;;10.50;84.48;96599.63;5069714;28;20440;-85
2022/09/27 01:19:14;;;;;;;2.30;0.98;;;;;;;10.57;85.09;96618.63;5107073;28;20463;-85
2022/09/27 01:21:50;;;;;;;3.15;0.93;;;;;;;10.77;84.90;96625.38;5121037;27;20106;-84
2022/09/27 01:24:30;;;;;;;1.25;1.15;;;;;;;10.74;84.46;96627.88;5102830;28;20117;-84
2022/09/27 01:27:14;;;;;;;3.00;1.30;;;;;;;10.83;83.96;96624.19;5106856;28;20027;-85
2022/09/27 01:30:07;;;;;;;1.00;0.85;;;;;;;10.80;84.13;96616.78;5103290;28;20068;-85
2022/09/27 01:32:58;;;;;;;0.85;0.85;;;;;;;10.70;83.74;96608.22;5106638;27;20395;-84
2022/09/27 01:35:45;;;;;;;1.00;1.00;;;;;;;10.70;84.62;96616.22;5104767;28;20024;-85
2022/09/27 01:38:23;;;;;;;1.25;1.15;;;;;;;10.77;84.62;96625.38;5106592;28;20038;-85
2022/09/27 01:40:53;;;;;;;1.00;1.00;;;;;;;10.68;84.77;96616.50;5108126;28;20665;-84
2022/09/27 01:44:01;;;;;;;1.25;0.73;;;;;;;10.61;84.82;96618.03;5116906;27;20027;-85
2022/09/27 01:46:34;;;;;;;1.20;1.10;;;;;;;10.64;84.50;96610.22;5107372;27;20051;-85
2022/09/27 01:49:05;;;;;;;2.38;1.40;;;;;;;10.68;84.83;96603.19;5109955;28;20035;-85
2022/09/27 01:51:38;;;;;;;1.73;1.25;;;;;;;10.66;84.85;96607.25;5108772;28;20059;-85
2022/09/27 01:54:06;;;;;;;0.82;0.80;;;;;;;10.63;84.43;96581.97;5122116;27;20051;-85
2022/09/27 01:56:40;;;;;;;0.88;0.82;;;;;;;10.70;83.85;96592.22;5106237;28;20058;-85
2022/09/27 01:59:18;;;;;;;0.73;0.73;;;;;;;10.74;84.06;96603.84;5091845;28;20031;-85
2022/09/27 02:01:49;;;;;;;0.80;0.70;;;;;;;10.85;83.61;96594.50;5090071;28;20028;-85
2022/09/27 02:04:23;;;;;;;0.95;0.95;;;;;;;10.83;83.17;96594.81;5105044;28;20060;-85
2022/09/27 02:06:58;;;;;;;1.20;1.10;;;;;;;10.49;84.63;96574.03;5104852;28;20463;-85
2022/09/27 02:09:33;;;;;;;1.45;0.80;;;;;;;10.37;84.64;96565.81;5102132;28;20019;-85
2022/09/27 02:12:04;;;;;;;1.65;0.98;;;;;;;10.57;84.16;96606.41;5090172;28;20395;-84
2022/09/27 02:14:53;;;;;;;1.70;1.35;;;;;;;10.45;84.68;96588.28;5106005;28;20024;-85
2022/09/27 02:17:43;;;;;;;0.95;0.95;;;;;;;10.62;84.29;96585.72;5105624;28;20032;-84
2022/09/27 02:20:14;;;;;;;1.20;1.10;;;;;;;10.59;84.83;96583.69;5105818;28;20586;-84
2022/09/27 02:22:58;;;;;;;1.77;1.25;;;;;;;10.64;84.53;96583.53;5103926;28;20039;-85
2022/09/27 02:25:37;;;;;;;1.45;1.30;;;;;;;10.73;84.34;96579.06;5108672;28;20036;-85
2022/09/27 02:28:21;;;;;;;2.53;1.05;;;;;;;10.67;84.20;96572.28;5124887;28;20385;-85
2022/09/27 02:30:47;;;;;;;1.73;1.63;;;;;;;10.89;83.65;96582.13;5104255;28;20535;-85
2022/09/27 02:33:12;;;;;;;2.63;1.52;;;;;;;10.88;83.24;96583.22;5107681;28;20110;-85
2022/09/27 02:35:38;;;;;;;1.63;1.50;;;;;;;10.60;84.25;96574.56;5103464;28;20116;-85
2022/09/27 02:38:06;;;;;;;1.58;1.40;;;;;;;10.50;84.00;96543.63;5092003;28;20106;-85
2022/09/27 02:40:36;;;;;;;1.45;1.35;;;;;;;10.82;83.83;96584.44;5089280;28;20030;-85
2022/09/27 02:43:04;;;;;;;2.28;1.60;;;;;;;10.80;83.17;96573.28;5106403;28;20518;-85
2022/09/27 02:45:39;;;;;;;2.35;1.75;;;;;;;10.50;84.48;96570.28;5109539;28;20031;-84
2022/09/27 02:48:57;;;;;;;4.80;1.70;;;;;;;10.86;83.24;96585.41;5108798;28;20019;-84
2022/09/27 02:51:50;;;;;;;2.03;1.65;;;;;;;10.81;83.97;96582.88;5072522;28;20873;-85
2022/09/27 02:54:25;;;;;;;2.10;1.73;;;;;;;10.74;83.17;96577.19;5107866;28;20055;-84
2022/09/27 02:57:20;;;;;;;4.13;1.67;;;;;;;10.83;83.42;96583.34;5103668;28;20035;-84
2022/09/27 02:59:53;;;;;;;2.42;2.20;;;;;;;10.75;83.41;96589.41;5106159;28;20027;-84
2022/09/27 03:02:24;;;;;;;4.18;2.05;;;;;;;10.74;83.39;96587.84;5103600;28;20107;-84
2022/09/27 03:04:56;;;;;;;3.47;2.45;;;;;;;10.60;84.19;96571.09;5108283;28;20031;-84
2022/09/27 03:07:22;;;;;;;4.45;2.58;;;;;;;10.72;83.50;96582.81;5105608;28;20035;-84
2022/09/27 03:09:50;;;;;;;4.43;2.78;;;;;;;10.82;83.03;96582.56;5108817;28;20028;-85
2022/09/27 03:12:24;;;;;;;3.22;2.42;;;;;;;10.63;83.28;96555.31;5110238;28;20016;-84
2022/09/27 03:14:59;;;;;;;5.07;2.58;;;;;;;10.50;84.64;96562.28;5108707;28;20126;-84
2022/09/27 03:17:25;;;;;;;3.05;2.50;;;;;;;10.67;84.18;96577.59;5107846;28;20432;-84
2022/09/27 03:19:51;;;;;;;3.30;2.80;;;;;;;10.43;84.26;96556.59;5122335;27;20112;-84
2022/09/27 03:22:17;;;;;;;3.45;3.03;;;;;;;10.45;84.46;96553.59;5106020;28;20032;-84
2022/09/27 03:24:43;;;;;;;4.53;2.75;;;;;;;10.60;84.68;96579.13;5108018;28;20019;-83
2022/09/27 03:27:09;;;;;;;3.45;2.70;;;;;;;10.57;84.95;96586.63;5108042;28;20055;-84
2022/09/27 03:29:35;;;;;;;5.03;3.13;;;;;;;10.48;84.45;96585.00;5126662;27;20047;-84
2022/09/27 03:32:01;;;;;;;5.30;3.20;;;;;;;10.33;85.24;96556.03;5109520;28;20028;-85
2022/09/27 03:34:26;;;;;;;6.28;3.28;;;;;;;10.46;84.58;96584.53;5105178;28;20230;-85
2022/09/27 03:36:52;;;;;;;3.80;3.50;;;;;;;10.42;85.09;96571.00;5088066;28;20107;-84
2022/09/27 03:39:17;;;;;;;7.45;3.35;;;;;;;10.39;85.02;96560.16;5093776;28;20024;-85
2022/09/27 03:41:43;;;;;;;6.88;3.72;;;;;;;10.39;84.64;96573.50;5110345;28;20069;-84
2022/09/27 03:44:08;;;;;;;5.70;3.38;;;;;;;10.38;84.95;96572.69;5076925;28;20034;-85
2022/09/27 03:46:39;;;;;;;5.65;3.75;;;;;;;10.24;85.30;96545.28;5108220;28;20059;-85
2022/09/27 03:49:04;;;;;;;5.88;3.55;;;;;;;10.38;85.08;96574.56;5073594;28;20023;-85
2022/09/27 03:51:30;;;;;;;9.25;3.50;;;;;;;10.43;85.17;96577.13;5077805;28;20042;-85
2022/09/27 03:53:55;;;;;;;9.68;3.60;;;;;;;10.32;84.91;96554.44;5112336;27;20076;-85
2022/09/27 03:56:21;;;;;;;5.07;3.13;;;;;;;10.38;85.04;96572.69;5071999;28;20614;-85
2022/09/27 03:58:47;;;;;;;3.35;3.05;;;;;;;10.10;85.17;96527.75;5112313;28;20031;-85
2022/09/27 04:01:13;;;;;;;4.57;2.85;;;;;;;10.40;85.07;96567.03;5094215;28;20027;-84
2022/09/27 04:03:38;;;;;;;4.95;3.05;;;;;;;10.56;84.60;96557.59;5101324;28;20036;-82
2022/09/27 04:06:04;;;;;;;5.53;3.10;;;;;;;10.44;84.61;96544.03;5082410;28;20031;-83
2022/09/27 04:08:29;;;;;;;5.65;2.78;;;;;;;10.47;84.87;96562.88;5104679;27;20488;-83
2022/09/27 04:10:55;;;;;;;5.13;2.80;;;;;;;10.20;84.94;96525.66;5105865;28;20023;-83
2022/09/27 04:13:21;;;;;;;4.88;2.75;;;;;;;10.41;85.45;96568.63;5087983;28;20364;-83
2022/09/27 04:15:46;;;;;;;3.65;2.78;;;;;;;10.34;85.70;96563.72;5074715;28;20062;-82
2022/09/27 04:18:12;;;;;;;3.05;2.70;;;;;;;10.19;86.81;96568.63;5107422;27;20051;-82
2022/09/27 04:20:37;;;;;;;3.58;1.95;;;;;;;10.34;85.76;96568.25;5105976;28;20489;-81
2022/09/27 04:23:03;;;;;;;2.10;1.95;;;;;;;10.02;85.97;96555.91;5103345;28;20023;-82
2022/09/27 04:25:28;;;;;;;3.58;1.80;;;;;;;10.08;85.74;96556.56;5104568;28;20516;-82
2022/09/27 04:27:57;;;;;;;2.47;2.00;;;;;;;10.19;84.80;96556.06;5082481;28;20041;-82
2022/09/27 04:30:25;;;;;;;2.25;2.00;;;;;;;10.14;84.97;96574.84;5102746;27;20038;-85
2022/09/27 04:32:50;;;;;;;2.67;1.60;;;;;;;10.15;84.73;96565.78;5107647;28;20513;-86
2022/09/27 04:38:00;;;;;;;1.67;1.25;;;;;;;10.20;84.39;96562.97;5094021;28;20514;-83
2022/09/27 04:40:25;;;;;;;2.10;1.55;;;;;;;10.15;84.94;96570.31;5104584;28;20028;-83
2022/09/27 04:42:51;;;;;;;1.58;0.88;;;;;;;10.03;85.40;96588.66;5103843;28;20028;-84
2022/09/27 04:45:17;;;;;;;1.90;1.15;;;;;;;10.02;84.56;96549.78;5108191;28;20038;-85
2022/09/27 04:47:47;;;;;;;1.05;0.95;;;;;;;9.96;85.22;96578.41;5107783;28;20050;-85
2022/09/27 04:50:13;;;;;;;3.17;1.00;;;;;;;10.12;85.30;96584.22;5090311;28;20387;-85
2022/09/27 04:52:39;;;;;;;1.13;1.00;;;;;;;10.24;84.44;96597.84;5102227;28;20022;-84
2022/09/27 04:55:06;;;;;;;2.70;1.10;;;;;;;9.98;84.91;96583.47;5104444;28;20023;-85
2022/09/27 04:57:32;;;;;;;0.80;0.80;;;;;;;10.02;84.97;96600.41;5103829;28;20119;-85
2022/09/27 04:59:59;;;;;;;1.98;1.35;;;;;;;9.82;85.64;96583.00;5108688;28;20523;-85
2022/09/27 05:02:25;;;;;;;0.57;0.57;;;;;;;10.07;84.48;96589.66;5092536;28;20049;-85
2022/09/27 05:04:51;;;;;;;1.90;0.60;;;;;;;10.15;84.67;96612.97;5109721;28;20452;-86
2022/09/27 05:07:17;;;;;;;1.48;0.80;;;;;;;10.13;84.25;96607.13;5090620;28;20106;-85
2022/09/27 05:09:42;;;;;;;0.80;0.77;;;;;;;9.90;84.82;96600.91;5093195;28;20049;-85
2022/09/27 05:12:07;;;;;;;0.75;0.70;;;;;;;10.00;84.79;96622.03;5111415;28;20112;-85
2022/09/27 05:14:33;;;;;;;1.15;0.70;;;;;;;10.01;84.92;96602.28;5110010;28;20502;-85
2022/09/27 05:16:59;;;;;;;1.13;0.70;;;;;;;9.90;84.98;96611.59;5107859;28;20028;-85
2022/09/27 05:19:24;;;;;;;1.30;1.08;;;;;;;9.98;84.41;96612.78;5100037;28;20039;-85
2022/09/27 05:21:49;;;;;;;4.53;1.00;;;;;;;10.12;83.78;96618.88;5075554;28;20034;-86
2022/09/27 05:24:15;;;;;;;3.08;0.80;;;;;;;10.05;84.67;96635.25;5066475;28;20060;-86
2022/09/27 05:26:40;;;;;;;2.08;0.70;;;;;;;10.18;83.80;96629.13;5087819;28;20497;-85
2022/09/27 05:29:06;;;;;;;0.90;0.75;;;;;;;10.23;83.67;96626.38;5067025;28;20032;-86
2022/09/27 05:31:31;;;;;;;0.70;0.70;;;;;;;10.37;83.46;96632.47;5101375;28;20411;-85
2022/09/27 05:33:57;;;;;;;1.55;0.63;;;;;;;10.31;82.71;96617.63;5107400;28;20493;-85
2022/09/27 05:36:22;;;;;;;0.70;0.70;;;;;;;10.39;83.21;96629.47;5076224;28;20028;-85
2022/09/27 05:38:48;;;;;;;1.48;0.80;;;;;;;10.22;84.17;96648.75;5072726;28;20027;-85
2022/09/27 05:41:14;;;;;;;2.95;0.80;;;;;;;10.51;82.76;96643.84;5107490;28;20152;-85
2022/09/27 05:43:40;;;;;;;0.60;0.60;;;;;;;10.29;83.15;96633.16;5089070;28;20114;-86
2022/09/27 05:46:06;;;;;;;0.70;0.70;;;;;;;10.25;83.98;96661.50;5071380;28;20296;-85
2022/09/27 05:48:31;;;;;;;0.70;0.70;;;;;;;9.73;85.29;96627.38;5090174;28;20423;-84
2022/09/27 05:50:57;;;;;;;1.95;0.70;;;;;;;10.22;84.31;96658.66;5108165;28;20039;-85
2022/09/27 05:53:23;;;;;;;3.53;1.00;;;;;;;10.14;85.12;96670.81;5105808;28;20059;-84
2022/09/27 05:55:48;;;;;;;2.22;0.70;;;;;;;10.24;84.50;96665.25;5106019;28;20070;-85
2022/09/27 05:58:15;;;;;;;3.08;0.52;;;;;;;9.76;85.70;96654.22;5107810;28;20031;-86
2022/09/27 06:00:42;;;;;;;1.63;0.82;;;;;;;10.05;85.01;96682.41;5088936;28;20024;-85
2022/09/27 06:03:07;;;;;;;1.23;0.80;;;;;;;10.23;84.16;96669.03;5108128;28;20023;-85
2022/09/27 06:05:37;;;;;;;0.52;0.52;;;;;;;10.24;83.58;96667.16;5093441;28;20034;-86
2022/09/27 06:08:05;;;;;;;2.17;0.68;;;;;;;10.04;84.36;96654.22;5104231;28;20023;-85
2022/09/27 06:10:32;;;;;;;1.05;0.77;;;;;;;10.17;83.46;96659.56;5111241;28;20620;-85
2022/09/27 06:13:23;;;;;;;1.50;0.95;;;;;;;10.29;83.42;96685.69;5109160;28;20176;-85
2022/09/27 06:15:51;;;;;;;1.60;0.65;;;;;;;10.18;84.32;96681.66;5089028;28;20130;-85
2022/09/27 06:18:17;;;;;;;2.05;0.70;;;;;;;10.17;84.15;96675.56;5102688;28;20032;-84
2022/09/27 06:20:43;;;;;;;2.55;1.05;;;;;;;10.34;83.38;96696.25;5105321;28;20027;-84
2022/09/27 06:23:17;;;;;;;2.47;1.20;;;;;;;10.16;83.56;96665.16;5101999;28;20042;-84
2022/09/27 06:25:43;;;;;;;2.25;1.35;;;;;;;10.13;84.47;96687.91;5105361;28;20596;-84
2022/09/27 06:28:09;;;;;;;1.38;1.08;;;;;;;10.14;83.67;96673.47;5101762;28;20510;-85
2022/09/27 06:30:41;;;;;;;3.30;1.60;;;;;;;10.12;83.40;96666.84;5100701;28;20088;-86
2022/09/27 06:33:09;;;;;;;1.70;1.38;;;;;;;9.89;84.70;96678.50;5098932;28;20031;-85
2022/09/27 06:35:35;;;;;;;1.30;1.00;;;;;;;10.23;83.45;96698.34;5102883;28;20115;-85
2022/09/27 06:38:07;;;;;;;1.10;1.00;;;;;;;10.11;83.83;96714.03;5103141;28;21656;-85
2022/09/27 06:40:33;;;;;;;1.90;1.55;;;;;;;10.04;84.05;96718.97;5097837;28;20020;-85
2022/09/27 06:43:08;;;;;;;6.07;2.15;;;;;;;10.25;83.84;96719.38;5085853;28;20020;-85
2022/09/27 06:45:34;;;;;;;2.30;1.05;;;;;;;10.29;83.59;96715.00;5112862;28;20022;-86
2022/09/27 06:48:05;;;;;;;2.60;1.00;;;;;;;10.33;83.46;96730.13;5106802;28;20046;-84
2022/09/27 06:50:33;;;;;;;2.72;0.85;;;;;;;10.22;84.13;96731.41;5087897;28;20049;-85
2022/09/27 06:52:58;;;;;;;3.75;1.42;;;;;;;10.21;83.67;96715.72;5103832;28;20118;-85
2022/09/27 06:55:24;;;;;;;8.25;3.50;;;;;;;10.24;84.90;96747.13;5111099;28;20114;-84
2022/09/27 07:00:41;;;;;;;1.27;1.00;;;;;;;10.32;83.59;96741.09;5108126;27;20088;-84
2022/09/27 07:03:10;;;;;;;1.65;1.15;;;;;;;10.25;83.38;96736.16;5107765;28;20020;-85
2022/09/27 07:05:37;;;;;;;4.35;1.17;;;;;;;9.90;83.56;96667.53;5106279;28;20080;-84
2022/09/27 07:08:03;;;;;;;4.60;2.00;;;;;;;10.37;83.74;96754.31;5108412;28;20026;-84
2022/09/27 07:10:33;;;;;;;2.20;1.50;;;;;;;10.31;84.32;96750.97;5106168;28;20088;-85
2022/09/27 07:13:09;;;;;;;1.20;0.63;;;;;;;10.35;83.40;96757.28;5110266;28;20430;-85
2022/09/27 07:15:36;;;;;;;1.27;1.08;;;;;;;10.41;83.48;96761.44;5109434;28;20020;-84
2022/09/27 07:18:03;;;;;;;3.35;1.00;;;;;;;10.34;83.32;96761.03;5108508;28;20046;-84
2022/09/27 07:20:29;;;;;;;1.25;1.15;;;;;;;10.29;83.71;96763.00;5090056;28;20054;-84
2022/09/27 07:22:54;;;;;;;0.90;0.90;;;;;;;10.50;83.44;96764.97;5090221;28;20033;-85
2022/09/27 07:25:20;;;;;;;5.97;1.50;;;;;;;10.53;83.70;96782.25;5106258;28;20080;-84
2022/09/27 07:27:46;;;;;;;2.40;1.40;;;;;;;10.26;85.49;96793.75;5106805;28;20100;-85
2022/09/27 07:30:12;;;;;;;1.20;1.10;;;;;;;10.25;84.38;96756.69;5106271;28;20043;-84
2022/09/27 07:32:38;;;;;;;2.63;1.48;;;;;;;10.42;84.53;96781.66;5105587;28;20024;-84
2022/09/27 07:35:04;;;;;;;3.90;1.50;;;;;;;10.44;84.87;96798.16;5070799;28;20039;-85
2022/09/27 07:37:34;;;;;;;1.65;0.93;;;;;;;10.63;84.05;96802.59;5105897;28;20058;-85
2022/09/27 07:40:01;;;;;;;2.85;1.73;;;;;;;10.33;85.39;96782.69;5112601;28;20038;-84
2022/09/27 07:42:29;;;;;;;2.03;1.80;;;;;;;10.64;84.12;96809.53;5093104;28;20395;-85
2022/09/27 07:44:55;;;;;;;1.73;1.20;;;;;;;10.67;83.10;96790.25;5112496;28;20068;-85
2022/09/27 07:47:24;;;;;;;2.95;1.08;;;;;;;10.54;84.27;96795.31;5107972;28;20024;-85
2022/09/27 07:49:54;;;;;;;2.58;1.33;;;;;;;10.76;83.60;96817.78;5111092;28;20395;-84
2022/09/27 07:52:21;;;;;;;1.27;1.17;;;;;;;10.74;83.07;96823.44;5109643;28;20067;-84
2022/09/27 07:54:46;;;;;;;2.70;1.90;;;;;;;10.57;84.07;96825.94;5103801;28;20031;-85
2022/09/27 07:57:16;;;;;;;1.95;1.75;;;;;;;10.24;84.58;96803.13;5105807;28;20028;-84
2022/09/27 07:59:41;;;;;;;2.40;1.50;;;;;;;10.28;85.35;96828.09;5089054;28;20035;-84
2022/09/27 08:02:14;;;;;;;1.40;1.30;;;;;;;10.60;83.28;96817.31;5107440;28;20483;-84
2022/09/27 08:04:41;;;;;;;3.40;1.58;;;;;;;10.69;82.83;96820.06;5108113;28;20020;-84
2022/09/27 08:07:06;;;;;;;1.40;1.30;;;;;;;10.74;83.35;96835.97;5103936;28;20069;-85
2022/09/27 08:09:32;;;;;;;2.78;1.55;;;;;;;10.54;84.27;96842.53;5083626;28;20406;-84
2022/09/27 08:11:57;;;;;;;2.17;1.65;;;;;;;10.66;84.25;96836.69;5089096;28;20090;-84
2022/09/27 08:14:23;;;;;;;2.03;1.30;;;;;;;10.57;83.54;96811.81;5099029;28;20026;-84
2022/09/27 08:16:50;;;;;;;5.53;1.85;;;;;;;10.25;83.98;96813.47;5089882;28;20028;-84
2022/09/27 08:19:16;;;;;;;1.63;1.52;;;;;;;10.66;83.59;96816.13;5105460;28;20028;-84
2022/09/27 08:21:42;;;;;;;2.95;1.55;;;;;;;10.93;82.95;96839.31;5111102;28;20012;-84
2022/09/27 08:24:07;;;;;;;3.25;1.35;;;;;;;10.65;82.93;96822.56;5111172;28;20445;-84
2022/09/27 08:26:33;;;;;;;5.70;2.10;;;;;;;10.81;83.21;96844.38;5089358;28;20035;-83
2022/09/27 08:28:58;;;;;;;2.45;1.70;;;;;;;10.48;83.23;96835.72;5086856;28;20028;-84
2022/09/27 08:31:24;;;;;;;4.13;1.60;;;;;;;10.68;82.93;96839.84;5109515;28;20055;-84
2022/09/27 08:33:51;;;;;;;2.15;1.48;;;;;;;10.92;82.55;96862.53;5075294;28;20032;-84
2022/09/27 08:36:17;;;;;;;2.22;1.45;;;;;;;11.00;82.24;96866.41;5104566;28;20031;-84
2022/09/27 08:38:43;;;;;;;1.80;1.15;;;;;;;10.73;82.54;96859.19;5107705;28;21414;-84
2022/09/27 08:41:34;;;;;;;1.65;1.42;;;;;;;10.74;83.08;96873.34;5092727;28;20035;-84
2022/09/27 08:44:15;;;;;;;2.58;1.83;;;;;;;10.85;82.56;96882.72;5104588;28;20031;-83
2022/09/27 08:46:43;;;;;;;3.15;1.58;;;;;;;10.97;82.27;96873.13;5101328;28;20806;-84
2022/09/27 08:49:34;;;;;;;2.42;1.33;;;;;;;10.89;83.15;96873.03;5101510;28;20118;-83
2022/09/27 08:52:00;;;;;;;3.70;1.80;;;;;;;10.90;83.42;96877.28;5099763;28;20126;-83
2022/09/27 08:54:30;;;;;;;2.95;1.33;;;;;;;10.88;82.06;96858.88;5108577;27;20586;-83
2022/09/27 08:57:11;;;;;;;4.95;2.85;;;;;;;10.87;82.02;96859.19;5106480;28;20038;-83
2022/09/27 08:59:40;;;;;;;3.30;1.27;;;;;;;10.82;82.74;96870.75;5104721;28;20032;-83
2022/09/27 09:02:16;;;;;;;3.08;1.75;;;;;;;11.05;81.85;96887.66;5107159;28;20574;-83
2022/09/27 09:04:43;;;;;;;4.68;1.67;;;;;;;11.11;81.98;96895.25;5104367;28;20020;-83
2022/09/27 09:07:12;;;;;;;4.65;1.95;;;;;;;11.12;82.12;96888.81;5084152;28;20039;-83
2022/09/27 09:10:04;;;;;;;4.00;1.52;;;;;;;11.20;81.24;96898.00;5110156;28;20035;-83
2022/09/27 09:12:49;;;;;;;4.18;1.67;;;;;;;11.16;81.76;96894.38;5104136;28;20082;-83
2022/09/27 09:15:29;;;;;;;2.47;1.58;;;;;;;11.15;81.56;96900.78;5108452;28;20030;-83
2022/09/27 09:18:21;;;;;;;4.47;1.80;;;;;;;11.09;81.25;96901.97;5102158;28;20036;-82
2022/09/27 09:21:17;;;;;;;3.38;2.15;;;;;;;11.11;81.61;96895.25;5117537;27;20032;-83
2022/09/27 09:24:01;;;;;;;7.68;1.95;;;;;;;11.17;81.16;96909.28;5098366;28;20086;-82
2022/09/27 09:27:04;;;;;;;4.57;1.70;;;;;;;11.01;80.31;96858.06;5105501;28;20027;-83
2022/09/27 09:30:08;;;;;;;4.68;2.08;;;;;;;11.17;80.45;96882.56;5104053;28;20090;-82
2022/09/27 09:33:04;;;;;;;3.47;2.20;;;;;;;11.18;80.49;96910.88;5105317;28;20059;-82
2022/09/27 09:35:39;;;;;;;9.57;2.95;;;;;;;11.14;80.63;96902.66;5082547;28;20067;-82
2022/09/27 09:38:17;;;;;;;2.67;2.45;;;;;;;11.22;80.31;96899.28;5101651;27;20122;-82
2022/09/27 09:41:00;;;;;;;5.53;3.03;;;;;;;11.18;79.84;96892.94;5103786;28;20038;-82
2022/09/27 09:43:46;;;;;;;3.10;2.83;;;;;;;11.34;78.98;96898.75;5106200;28;20047;-82
2022/09/27 09:46:16;;;;;;;4.18;2.78;;;;;;;11.45;78.86;96918.00;5100038;27;20080;-82
2022/09/27 09:48:47;;;;;;;4.45;3.88;;;;;;;11.32;79.28;96922.31;5102411;28;20023;-81
2022/09/27 09:51:20;;;;;;;6.05;4.10;;;;;;;11.39;78.85;96917.34;5100738;28;20024;-82
2022/09/27 09:54:12;;;;;;;6.13;3.67;;;;;;;11.28;78.68;96910.66;5106502;28;20024;-82
2022/09/27 09:56:47;;;;;;;4.63;3.67;;;;;;;11.40;78.64;96916.25;5100962;28;20015;-82
2022/09/27 09:59:23;;;;;;;4.40;3.38;;;;;;;11.38;77.78;96907.75;5105504;28;20494;-82
2022/09/27 10:01:49;;;;;;;5.60;3.97;;;;;;;11.32;79.36;96908.94;5089403;28;20522;-82
2022/09/27 10:04:22;;;;;;;8.55;4.53;;;;;;;11.32;79.26;96899.06;5101480;28;20023;-82
2022/09/27 10:06:48;;;;;;;5.47;3.58;;;;;;;11.28;78.83;96890.06;5098095;28;20038;-81
2022/09/27 10:09:16;;;;;;;6.50;3.30;;;;;;;11.42;78.50;96907.94;5109670;28;20503;-81
2022/09/27 10:11:46;;;;;;;5.28;3.47;;;;;;;11.54;78.28;96917.00;5103515;28;20039;-82
2022/09/27 10:14:14;;;;;;;5.43;3.03;;;;;;;11.41;79.11;96909.81;5081148;28;20051;-82
2022/09/27 10:16:45;;;;;;;10.18;5.25;;;;;;;11.52;79.39;96907.72;5097625;28;20479;-82
2022/09/27 10:19:14;;;;;;;12.25;4.45;;;;;;;11.62;78.14;96902.16;5102180;28;20020;-81
2022/09/27 10:21:44;;;;;;;4.43;4.03;;;;;;;11.51;78.54;96900.81;5087143;28;20036;-81
2022/09/27 10:24:13;;;;;;;5.65;4.63;;;;;;;11.78;78.13;96922.09;5086920;28;20024;-81
2022/09/27 10:26:42;;;;;;;7.63;5.53;;;;;;;11.86;77.86;96900.78;5106938;28;20063;-81
2022/09/27 10:29:15;;;;;;;8.30;5.18;;;;;;;11.69;76.79;96881.97;5101628;28;20496;-81
2022/09/27 10:31:46;;;;;;;6.13;4.30;;;;;;;11.98;76.38;96902.91;5109153;28;20028;-82
2022/09/27 10:34:29;;;;;;;6.60;4.72;;;;;;;12.09;76.36;96896.22;5109727;28;20106;-81
2022/09/27 10:37:10;;;;;;;6.88;4.47;;;;;;;11.93;76.59;96906.50;5104523;28;20027;-81
2022/09/27 10:39:37;;;;;;;10.50;5.38;;;;;;;12.21;76.83;96904.47;5109141;28;20024;-82
2022/09/27 10:42:19;;;;;;;5.90;4.57;;;;;;;12.07;76.88;96897.63;5106415;28;20475;-82
2022/09/27 10:44:44;;;;;;;8.82;5.15;;;;;;;12.17;76.11;96916.09;5097358;28;20047;-81
2022/09/27 10:47:18;;;;;;;4.88;4.38;;;;;;;12.03;75.55;96914.25;5105368;28;20499;-81
2022/09/27 10:49:44;;;;;;;10.73;5.63;;;;;;;12.03;76.23;96919.63;5110964;28;20035;-82
2022/09/27 10:52:21;;;;;;;6.95;5.13;;;;;;;11.87;75.59;96931.78;5109342;28;20023;-82
2022/09/27 10:54:58;;;;;;;8.57;5.13;;;;;;;11.91;75.52;96938.09;5109231;28;20319;-82
2022/09/27 10:57:27;;;;;;;7.90;5.38;;;;;;;11.91;75.18;96932.75;5106264;28;20020;-82
2022/09/27 10:59:59;;;;;;;9.07;5.50;;;;;;;11.98;74.45;96929.66;5081549;28;20047;-82
2022/09/27 11:02:38;;;;;;;8.55;5.78;;;;;;;12.03;74.15;96934.91;5095939;28;20028;-82
2022/09/27 11:05:32;;;;;;;6.03;5.15;;;;;;;11.68;74.32;96933.84;5102330;28;20016;-82
2022/09/27 11:08:26;;;;;;;7.93;5.90;;;;;;;11.79;74.67;96945.88;5097121;28;20485;-81
2022/09/27 11:11:03;;;;;;;7.63;6.88;;;;;;;11.62;75.12;96943.00;5093736;28;20035;-82
2022/09/27 11:13:31;;;;;;;9.00;6.07;;;;;;;11.71;75.07;96930.53;5101687;28;20032;-81
2022/09/27 11:16:27;;;;;;;9.13;5.75;;;;;;;11.80;74.77;96941.31;5085727;28;20040;-81
2022/09/27 11:19:11;;;;;;;7.63;5.45;;;;;;;11.79;75.05;96943.22;5100198;28;20081;-82
2022/09/27 11:21:47;;;;;;;8.65;7.40;;;;;;;11.68;75.86;96933.84;5099411;28;20023;-82
2022/09/27 11:24:16;;;;;;;9.40;7.72;;;;;;;11.95;74.77;96948.97;5104389;28;20019;-81
2022/09/27 11:27:04;;;;;;;11.38;6.70;;;;;;;12.06;74.38;96950.31;5107680;28;20426;-82
2022/09/27 11:30:03;;;;;;;7.28;5.85;;;;;;;11.97;74.19;96917.38;5111309;28;20479;-82
2022/09/27 11:32:58;;;;;;;5.82;5.40;;;;;;;11.91;73.87;96906.03;5109069;28;20470;-82
2022/09/27 11:35:25;;;;;;;7.72;5.03;;;;;;;12.27;73.68;96930.03;5103202;28;20031;-82
2022/09/27 11:38:02;;;;;;;6.38;4.90;;;;;;;12.27;73.44;96937.25;5112087;28;20024;-82
2022/09/27 11:40:39;;;;;;;6.15;4.53;;;;;;;12.16;72.96;96911.84;5108774;28;20479;-81
2022/09/27 11:43:17;;;;;;;11.40;4.40;;;;;;;12.11;73.23;96934.16;5112576;28;20068;-82
2022/09/27 11:46:09;;;;;;;4.50;3.97;;;;;;;12.10;73.34;96953.19;5105930;28;20435;-82
2022/09/27 11:48:52;;;;;;;8.02;3.85;;;;;;;11.98;73.33;96938.47;5109491;28;20027;-82
2022/09/27 11:51:42;;;;;;;4.85;3.13;;;;;;;12.10;72.46;96929.13;5129287;27;20038;-81
2022/09/27 11:54:32;;;;;;;4.80;2.58;;;;;;;12.25;72.26;96937.56;5097354;28;20042;-82
2022/09/27 11:57:25;;;;;;;4.88;2.40;;;;;;;12.25;72.66;96920.72;5111991;28;20024;-82
2022/09/27 12:00:09;;;;;;;6.57;2.63;;;;;;;12.46;71.61;96933.28;5105308;28;20111;-82
2022/09/27 12:02:50;;;;;;;2.33;2.20;;;;;;;12.58;71.24;96936.16;5111639;28;20024;-82